Time;durP1;ratioP1;P1;durP2;ratioP2;P2;SDS_P1;SDS_P2;PMS_P1;PMS_P2;Temp;Humidity;BMP_temperature;BMP_pressure;BME280_temperature;BME280_humidity;BME280_pressure;Samples;Min_cycle;Max_cycle;Signal;HPM_P1;HPM_P2
2023/05/23 00:00:18;;;;;;;;;;;;;;;16.86;100.00;99484.84;5053217;28;19916;-87
2023/05/23 00:02:43;;;;;;;;;;;;;;;16.75;100.00;99484.31;5038242;28;20435;-88
2023/05/23 00:05:09;;;;;;;;;;;;;;;16.88;100.00;99488.19;5039711;28;19926;-87
2023/05/23 00:07:34;;;;;;;;;;;;;;;16.86;100.00;99487.53;5044975;28;20246;-87
2023/05/23 00:09:59;;;;;;;;;;;;;;;16.86;100.00;99482.19;5039807;28;19916;-87
2023/05/23 00:12:26;;;;;;;;;;;;;;;16.92;100.00;99484.13;5047630;28;19963;-88
2023/05/23 00:14:52;;;;;;;;;;;;;;;16.98;100.00;99480.72;5053690;28;20280;-88
2023/05/23 00:17:18;;;;;;;;;;;;;;;17.01;100.00;99483.03;5051533;28;19971;-87
2023/05/23 00:19:46;;;;;;;;;;;;;;;16.75;100.00;99476.31;5041743;28;19971;-88
2023/05/23 00:22:14;;;;;;;;;;;;;;;16.31;100.00;99475.44;5037380;28;19989;-88
2023/05/23 00:24:39;;;;;;;;;;;;;;;16.21;100.00;99478.34;5035857;28;20460;-87
2023/05/23 00:27:05;;;;;;;;;;;;;;;16.15;100.00;99480.91;5045789;28;19952;-87
2023/05/23 00:29:30;;;;;;;;;;;;;;;16.09;100.00;99482.44;5071990;28;19912;-87
2023/05/23 00:31:55;;;;;;;;;;;;;;;16.16;100.00;99477.25;5070499;28;19999;-85
2023/05/23 00:34:21;;;;;;;;;;;;;;;16.17;100.00;99484.22;5058575;28;19929;-88
2023/05/23 00:36:46;;;;;;;;;;;;;;;16.07;100.00;99473.00;5053196;28;19920;-88
2023/05/23 00:39:18;;;;;;;;;;;;;;;15.95;100.00;99469.94;5047713;28;19927;-87
2023/05/23 00:41:45;;;;;;;;;;;;;;;15.86;100.00;99477.16;5063288;28;20250;-87
2023/05/23 00:44:11;;;;;;;;;;;;;;;15.80;100.00;99475.22;5055865;28;19916;-88
2023/05/23 00:46:36;;;;;;;;;;;;;;;15.71;100.00;99473.63;5036368;28;19931;-87
2023/05/23 00:49:02;;;;;;;;;;;;;;;15.69;100.00;99472.97;5053136;28;19944;-88
2023/05/23 00:51:27;;;;;;;;;;;;;;;15.73;100.00;99471.59;5035686;28;20077;-89
2023/05/23 00:53:53;;;;;;;;;;;;;;;15.83;100.00;99466.06;5036078;28;19917;-88
2023/05/23 00:56:19;;;;;;;;;;;;;;;15.84;100.00;99468.53;5032208;28;19913;-89
2023/05/23 00:58:46;;;;;;;;;;;;;;;15.88;100.00;99469.00;5034835;28;19935;-88
2023/05/23 01:01:12;;;;;;;;;;;;;;;15.70;100.00;99474.63;5059002;28;19921;-89
2023/05/23 01:03:37;;;;;;;;;;;;;;;15.57;100.00;99466.41;5059188;28;19917;-89
2023/05/23 01:06:03;;;;;;;;;;;;;;;15.48;100.00;99475.41;5052911;28;20011;-88
2023/05/23 01:08:28;;;;;;;;;;;;;;;15.42;100.00;99473.47;5036754;28;19917;-88
2023/05/23 01:10:56;;;;;;;;;;;;;;;15.42;100.00;99478.78;5066384;28;19917;-88
2023/05/23 01:13:33;;;;;;;;;;;;;;;15.48;100.00;99488.72;5072944;28;19920;-89
2023/05/23 01:16:08;;;;;;;;;;;;;;;15.34;100.00;99481.47;5045680;28;19970;-88
2023/05/23 01:18:42;;;;;;;;;;;;;;;15.37;100.00;99481.13;5053765;28;20280;-90
2023/05/23 01:21:11;;;;;;;;;;;;;;;15.38;100.00;99480.94;5043640;28;19916;-90
2023/05/23 01:23:55;;;;;;;;;;;;;;;15.43;100.00;99475.13;5039997;28;19921;-89
2023/05/23 01:26:25;;;;;;;;;;;;;;;15.47;100.00;99471.94;5047996;28;19948;-89
2023/05/23 01:28:53;;;;;;;;;;;;;;;15.46;100.00;99474.75;5049073;28;19917;-88
2023/05/23 01:31:20;;;;;;;;;;;;;;;15.38;100.00;99478.28;5045915;28;19916;-87
2023/05/23 01:33:48;;;;;;;;;;;;;;;15.38;100.00;99467.66;5036691;28;19920;-87
2023/05/23 01:36:14;;;;;;;;;;;;;;;15.39;100.00;99468.47;5053651;28;20035;-88
2023/05/23 01:38:39;;;;;;;;;;;;;;;15.41;100.00;99466.47;5052522;28;19964;-89
2023/05/23 01:41:05;;;;;;;;;;;;;;;15.34;100.00;99466.34;5056412;28;19916;-87
2023/05/23 01:43:32;;;;;;;;;;;;;;;15.21;100.00;99465.25;5034954;28;19916;-86
2023/05/23 01:45:57;;;;;;;;;;;;;;;15.14;100.00;99463.28;5051042;28;19992;-86
2023/05/23 01:48:25;;;;;;;;;;;;;;;15.10;100.00;99459.34;5059967;28;19916;-88
2023/05/23 01:50:51;;;;;;;;;;;;;;;15.14;100.00;99465.13;5045681;28;19923;-88
2023/05/23 01:53:22;;;;;;;;;;;;;;;15.22;100.00;99466.91;5053649;28;19931;-88
2023/05/23 01:55:48;;;;;;;;;;;;;;;15.20;100.00;99468.94;5038806;28;19925;-88
2023/05/23 01:58:13;;;;;;;;;;;;;;;14.94;100.00;99462.06;5019862;28;19940;-89
2023/05/23 02:03:36;;;;;;;;;;;;;;;14.95;100.00;99470.88;4969753;28;19929;-80
2023/05/23 02:06:01;;;;;;;16.50;14.52;;;;;;;14.86;100.00;99464.75;4968269;28;19919;-79
2023/05/23 02:08:27;;;;;;;17.55;15.75;;;;;;;14.74;100.00;99458.16;4955937;28;20034;-79
2023/05/23 02:10:53;;;;;;;15.88;14.48;;;;;;;14.70;100.00;99457.69;4977048;28;20030;-78
2023/05/23 02:13:19;;;;;;;;;;;;;;;14.65;100.00;99464.50;4976652;28;20038;-80
2023/05/23 02:15:44;;;;;;;;;;;;;;;14.61;100.00;99460.53;4958846;28;19925;-81
2023/05/23 02:18:09;;;;;;;;;;;;;;;14.65;100.00;99461.84;4976177;28;19918;-80
2023/05/23 02:20:40;;;;;;;;;;;;;;;14.70;100.00;99456.84;4976611;28;20353;-79
2023/05/23 02:23:05;;;;;;;;;;;;;;;14.80;100.00;99460.13;4959702;28;19928;-78
2023/05/23 02:25:31;;;;;;;;;;;;;;;14.92;100.00;99460.59;4975647;28;19918;-78
2023/05/23 02:27:56;;;;;;;;;;;;;;;14.91;100.00;99464.22;4976603;28;20369;-80
2023/05/23 02:30:21;;;;;;;;;;;;;;;14.76;100.00;99466.78;4976709;28;20326;-80
2023/05/23 02:32:48;;;;;;;;;;;;;;;14.64;100.00;99465.50;4974607;28;19989;-80
2023/05/23 02:35:14;;;;;;;;;;;;;;;14.65;100.00;99464.50;4974951;28;20322;-80
2023/05/23 02:37:39;;;;;;;;;;;;;;;14.69;100.00;99471.13;4975451;28;19968;-80
2023/05/23 02:40:06;;;;;;;;;;;;;;;14.68;100.00;99469.47;4975336;28;20053;-80
2023/05/23 02:42:32;;;;;;;;;;;;;;;14.75;100.00;99475.75;4975232;28;19918;-79
2023/05/23 02:44:57;;;;;;;;;;;;;;;14.80;100.00;99472.59;4975920;28;20314;-79
2023/05/23 02:47:23;;;;;;;;;;;;;;;14.86;100.00;99471.91;4975929;28;19924;-80
2023/05/23 02:49:48;;;;;;;;;;;;;;;14.82;100.00;99474.09;4984312;28;19914;-81
2023/05/23 02:52:13;;;;;;;;;;;;;;;14.91;100.00;99474.84;4974283;28;20298;-80
2023/05/23 02:54:39;;;;;;;;;;;;;;;14.94;100.00;99475.38;4990533;28;20421;-80
2023/05/23 02:57:05;;;;;;;;;;;;;;;14.97;100.00;99479.47;4958976;28;19922;-79
2023/05/23 02:59:34;;;;;;;;;;;;;;;15.02;100.00;99471.84;4958228;28;19924;-81
2023/05/23 03:01:59;;;;;;;;;;;;;;;15.06;100.00;99468.66;4973743;28;19993;-80
2023/05/23 03:04:26;;;;;;;;;;;;;;;15.08;100.00;99460.50;4987402;28;20398;-80
2023/05/23 03:06:53;;;;;;;;;;;;;;;15.15;100.00;99466.78;4971044;28;19919;-80
2023/05/23 03:09:18;;;;;;;;;;;;;;;15.15;100.00;99472.09;4974969;28;19926;-80
2023/05/23 03:11:44;;;;;;;;;;;;;;;15.14;100.00;99471.25;4974318;28;19973;-80
2023/05/23 03:14:10;;;;;;;;;;;;;;;15.09;100.00;99481.59;4974288;28;19941;-80
2023/05/23 03:16:35;;;;;;;;;;;;;;;15.00;100.00;99464.03;4975691;28;19918;-80
2023/05/23 03:19:01;;;;;;;;;;;;;;;14.93;100.00;99472.88;4975050;28;19918;-79
2023/05/23 03:21:26;;;;;;;;;;;;;;;14.85;100.00;99475.53;4975593;28;20014;-81
2023/05/23 03:23:51;;;;;;;;;;;;;;;14.64;100.00;99474.31;4957924;28;19918;-81
2023/05/23 03:26:17;;;;;;;;;;;;;;;14.58;100.00;99476.81;4974350;28;19925;-80
2023/05/23 03:28:43;;;;;;;;;;;;;;;14.60;100.00;99477.47;4975653;28;19924;-80
2023/05/23 03:31:08;;;;;;;;;;;;;;;14.62;100.00;99475.47;4958248;28;19918;-80
2023/05/23 03:33:33;;;;;;;;;;;;;;;14.55;100.00;99474.50;4975419;28;19922;-81
2023/05/23 03:35:59;;;;;;;;;;;;;;;14.59;100.00;99475.81;4974104;28;20281;-81
2023/05/23 03:38:24;;;;;;;;;;;;;;;14.65;100.00;99480.44;4949780;28;19973;-81
2023/05/23 03:40:50;;;;;;;;;;;;;;;14.67;100.00;99483.75;4966845;28;19918;-81
2023/05/23 03:43:15;;;;;;;;;;;;;;;14.46;100.00;99480.81;4974159;28;19969;-79
2023/05/23 03:45:42;;;;;;;;;;;;;;;14.49;100.00;99480.50;4973727;28;19924;-80
2023/05/23 03:48:11;;;;;;;;;;;;;;;14.60;100.00;99488.94;4974512;28;19918;-81
2023/05/23 03:50:38;;;;;;;;;;;;;;;14.57;100.00;99483.94;4958509;28;19976;-80
2023/05/23 03:53:04;;;;;;;;;;;;;;;14.46;100.00;99478.16;4958167;28;19976;-79
2023/05/23 03:55:31;;;;;;;;;;;;;;;14.43;100.00;99474.00;4974220;28;19973;-79
2023/05/23 03:57:56;;;;;;;;;;;;;;;14.37;100.00;99481.81;4958887;28;19918;-79
2023/05/23 04:00:22;;;;;;;;;;;;;;;14.21;100.00;99483.47;4976255;28;20297;-81
2023/05/23 04:02:50;;;;;;;;;;;;;;;14.05;100.00;99472.88;4975302;28;20400;-81
2023/05/23 04:05:17;;;;;;;;;;;;;;;14.05;100.00;99477.34;4974765;28;20953;-81
2023/05/23 04:07:43;;;;;;;;;;;;;;;13.94;100.00;99481.19;4996238;28;20335;-81
2023/05/23 04:10:09;;;;;;;;;;;;;;;13.92;100.00;99483.16;4981669;28;19924;-81
2023/05/23 04:12:35;;;;;;;;;;;;;;;13.99;100.00;99489.47;4972305;28;19926;-82
2023/05/23 04:15:02;;;;;;;;;;;;;;;14.07;100.00;99481.50;4975077;28;20275;-79
2023/05/23 04:17:30;;;;;;;;;;;;;;;14.14;100.00;99486.97;4973677;28;19929;-80
2023/05/23 04:19:56;;;;;;;;;;;;;;;14.28;100.00;99492.44;4985696;28;19918;-79
2023/05/23 04:22:21;;;;;;;;;;;;;;;14.30;100.00;99493.09;4980366;28;19924;-80
2023/05/23 04:24:47;;;;;;;;;;;;;;;14.36;100.00;99491.59;4974003;28;19918;-80
2023/05/23 04:27:13;;;;;;;;;;;;;;;14.38;100.00;99494.09;4985856;28;19917;-80
2023/05/23 04:29:38;;;;;;;;;;;;;;;14.37;100.00;99497.75;4974416;28;19918;-80
2023/05/23 04:32:05;;;;;;;;;;;;;;;14.38;100.00;99488.78;4964158;28;19922;-80
2023/05/23 04:34:32;;;;;;;;;;;;;;;14.50;100.00;99487.44;4974634;28;19918;-79
2023/05/23 04:37:01;;;;;;;;;;;;;;;14.62;100.00;99491.41;4972921;28;19914;-80
2023/05/23 04:39:28;;;;;;;;;;;;;;;14.68;100.00;99488.88;4974896;28;19968;-81
2023/05/23 04:42:23;;;;;;;;;;;;;;;14.73;100.00;99501.66;4958057;28;19925;-81
2023/05/23 04:44:58;;;;;;;;;;;;;;;14.74;100.00;99503.31;4986032;28;19945;-80
2023/05/23 04:47:43;;;;;;;;;;;;;;;14.68;100.00;99501.34;4972764;28;19925;-81
2023/05/23 04:50:15;;;;;;;;;;;;;;;14.79;100.00;99503.63;4969705;28;20335;-79
2023/05/23 04:52:41;;;;;;;;;;;;;;;14.90;100.00;99499.81;4955523;28;20422;-79
2023/05/23 04:55:07;;;;;;;;;;;;;;;14.90;100.00;99495.31;4972451;28;19989;-80
2023/05/23 04:57:34;;;;;;;;;;;;;;;14.95;100.00;99492.97;4970485;28;19918;-80
2023/05/23 05:00:00;;;;;;;;;;;;;;;14.96;100.00;99499.91;4957804;28;19918;-80
2023/05/23 05:02:27;;;;;;;;;;;;;;;15.03;100.00;99505.38;4973281;28;20048;-81
2023/05/23 05:04:52;;;;;;;;;;;;;;;15.12;100.00;99499.03;4972981;28;20001;-79
2023/05/23 05:07:18;;;;;;;;;;;;;;;15.19;100.00;99496.53;4972532;28;19937;-80
2023/05/23 05:09:43;;;;;;;;;;;;;;;15.23;100.00;99497.81;4974116;28;19925;-79
2023/05/23 05:12:10;;;;;;;;;;;;;;;15.24;100.00;99502.13;4971056;28;20295;-81
2023/05/23 05:14:36;;;;;;;;;;;;;;;15.09;100.00;99494.88;4981818;28;19918;-81
2023/05/23 05:17:02;;;;;;;;;;;;;;;14.94;100.00;99493.97;4956673;28;19926;-82
2023/05/23 05:19:35;;;;;;;;;;;;;;;14.90;100.00;99500.63;4973069;28;19918;-81
2023/05/23 05:22:00;;;;;;;;;;;;;;;15.01;100.00;99510.88;4956324;28;19973;-80
2023/05/23 05:24:26;;;;;;;;;;;;;;;14.92;100.00;99509.25;4968988;28;20316;-80
2023/05/23 05:26:52;;;;;;;;;;;;;;;14.92;100.00;99509.25;4968832;28;19922;-80
2023/05/23 05:29:18;;;;;;;;;;;;;;;15.04;100.00;99512.34;4969212;28;20414;-83
2023/05/23 05:31:44;;;;;;;;;;;;;;;15.07;100.00;99507.53;4971637;28;20057;-81
2023/05/23 05:34:10;;;;;;;;;;;;;;;15.09;100.00;99510.81;4974338;28;19918;-81
2023/05/23 05:36:36;;;;;;;;;;;;;;;15.18;100.00;99508.16;4973078;28;19929;-81
2023/05/23 05:39:01;;;;;;;;;;;;;;;15.21;100.00;99507.78;4973169;28;19917;-84
2023/05/23 05:41:26;;;;;;;;;;;;;;;15.28;100.00;99498.13;4984614;28;19926;-83
2023/05/23 05:43:52;;;;;;;;;;;;;;;15.29;100.00;99499.78;4985871;28;19918;-84
2023/05/23 05:46:20;;;;;;;;;;;;;;;15.18;100.00;99513.47;4972441;28;20004;-82
2023/05/23 05:48:47;;;;;;;;;;;;;;;15.21;100.00;99503.31;4955372;28;19969;-85
2023/05/23 05:51:13;;;;;;;;;;;;;;;15.20;100.00;99500.84;4980388;28;19945;-83
2023/05/23 05:53:39;;;;;;;;;;;;;;;15.21;100.00;99497.16;4971041;28;19918;-83
2023/05/23 05:56:07;;;;;;;;;;;;;;;15.32;100.00;99510.06;4972972;28;19918;-83
2023/05/23 05:58:33;;;;;;;;;;;;;;;15.40;100.00;99504.69;4972266;28;19922;-85
2023/05/23 06:01:05;;;;;;;;;;;;;;;15.55;100.00;99510.97;4972454;28;19961;-83
2023/05/23 06:03:32;;;;;;;;;;;;;;;15.56;100.00;99513.44;4977781;28;19918;-85
2023/05/23 06:05:58;;;;;;;;;;;;;;;15.54;100.00;99510.16;4969271;28;19922;-81
2023/05/23 06:08:23;;;;;;;;;;;;;;;15.59;100.00;99498.97;4972945;28;20029;-84
2023/05/23 06:10:49;;;;;;;;;;;;;;;15.73;100.00;99506.19;4973381;28;19922;-83
2023/05/23 06:13:15;;;;;;;;;;;;;;;15.81;100.00;99508.78;4971308;28;19929;-83
2023/05/23 06:15:44;;;;;;;;;;;;;;;15.92;100.00;99508.38;4953923;28;19918;-82
2023/05/23 06:18:10;;;;;;;;;;;;;;;16.04;100.00;99505.28;4987271;28;19968;-82
2023/05/23 06:20:36;;;;;;;;;;;;;;;16.15;100.00;99516.34;4971270;28;19968;-82
2023/05/23 06:23:05;;;;;;;;;;;;;;;16.30;100.00;99505.75;4971243;28;19934;-82
2023/05/23 06:25:30;;;;;;;;;;;;;;;16.41;100.00;99518.63;4955145;28;19925;-82
2023/05/23 06:27:56;;;;;;;;;;;;;;;16.49;100.00;99509.72;4967706;28;20378;-82
2023/05/23 06:30:23;;;;;;;;;;;;;;;16.65;100.00;99510.41;4954722;28;20271;-83
2023/05/23 06:32:50;;;;;;;;;;;;;;;16.73;100.00;99517.47;4971637;28;19918;-82
2023/05/23 06:35:17;;;;;;;;;;;;;;;16.74;100.00;99517.31;4973151;28;19963;-83
2023/05/23 06:37:44;;;;;;;;;;;;;;;16.84;100.00;99513.56;4972157;28;20286;-82
2023/05/23 06:40:13;;;;;;;;;;;;;;;16.88;100.00;99514.81;4970748;28;19961;-83
2023/05/23 06:42:39;;;;;;;;;;;;;;;16.93;100.00;99504.44;4971011;28;19946;-82
2023/05/23 06:45:17;;;;;;;;;;;;;;;17.03;100.00;99513.81;4969943;28;19918;-82
2023/05/23 06:47:46;;;;;;;;;;;;;;;16.99;100.00;99511.69;4971983;28;19918;-83
2023/05/23 06:50:12;;;;;;;;;;;;;;;17.04;100.00;99514.63;4971510;28;20260;-82
2023/05/23 06:52:38;;;;;;;;;;;;;;;17.18;100.00;99511.97;4980488;28;19928;-83
2023/05/23 06:55:03;;;;;;;;;;;;;;;17.23;100.00;99518.56;4982675;28;19961;-83
2023/05/23 06:57:29;;;;;;;;;;;;;;;17.31;100.00;99516.63;4976094;28;20417;-83
2023/05/23 06:59:55;;;;;;;;;;;;;;;17.40;100.00;99515.50;4958438;28;19918;-83
2023/05/23 07:02:21;;;;;;;;;;;;;;;17.51;100.00;99517.69;4975079;28;19918;-83
2023/05/23 07:04:46;;;;;;;;;;;;;;;17.63;100.00;99514.56;4991812;28;19918;-83
2023/05/23 07:07:17;;;;;;;;;;;;;;;17.65;100.00;99515.19;4973402;28;19934;-83
2023/05/23 07:09:43;;;;;;;;;;;;;;;17.74;100.00;99511.38;4975339;28;19918;-83
2023/05/23 07:12:13;;;;;;;;;;;;;;;17.87;100.00;99511.53;4957674;28;19925;-83
2023/05/23 07:14:41;;;;;;;;;;;;;;;17.93;100.00;99505.41;4973836;28;19918;-83
2023/05/23 07:17:08;;;;;;;;;;;;;;;18.04;100.00;99510.25;4973320;28;20390;-83
2023/05/23 07:19:34;;;;;;;;;;;;;;;18.13;100.00;99506.44;4974332;28;20083;-83
2023/05/23 07:21:59;;;;;;;;;;;;;;;18.23;100.00;99506.94;4989217;28;20000;-82
2023/05/23 07:24:25;;;;;;;;;;;;;;;18.30;100.00;99510.47;4974812;28;19918;-82
2023/05/23 07:26:53;;;;;;;;;;;;;;;18.40;100.00;99510.97;4973922;28;19918;-82
2023/05/23 07:29:19;;;;;;;;;;;;;;;18.46;100.00;99511.19;4973959;28;19914;-83
2023/05/23 07:31:46;;;;;;;;;;;;;;;18.52;100.00;99515.78;4973420;28;20041;-83
2023/05/23 07:34:12;;;;;;;;;;;;;;;18.58;100.00;99507.00;4973298;28;20338;-83
2023/05/23 07:36:49;;;;;;;;;;;;;;;18.66;100.00;99498.84;4970717;28;20009;-84
2023/05/23 07:39:20;;;;;;;;;;;;;;;18.80;100.00;99511.25;4973361;28;20084;-84
2023/05/23 07:41:46;;;;;;;;;;;;;;;18.95;100.00;99509.31;4990179;28;19941;-84
2023/05/23 07:44:11;;;;;;;;;;;;;;;19.01;100.00;99505.84;4973124;28;19922;-84
2023/05/23 07:46:37;;;;;;;;;;;;;;;19.14;100.00;99505.09;4985322;28;20065;-84
2023/05/23 07:49:02;;;;;;;;;;;;;;;19.26;100.00;99502.66;4970630;28;19968;-84
2023/05/23 07:51:27;;;;;;;;;;;;;;;19.33;100.00;99503.50;4957624;28;19922;-84
2023/05/23 07:53:54;;;;;;;;;;;;;;;19.43;100.00;99493.25;4970622;28;20382;-82
2023/05/23 07:56:22;;;;;;;;;;;;;;;19.55;100.00;99491.69;4972749;28;20006;-84
2023/05/23 07:58:47;;;;;;;;;;;;;;;19.62;100.00;99492.50;4973148;28;20500;-84
2023/05/23 08:01:13;;;;;;;;;;;;;;;19.73;100.00;99489.25;4950300;28;19919;-84
2023/05/23 08:04:07;;;;;;;;;;;;;;;19.86;100.00;99494.59;4962838;28;20300;-83
2023/05/23 08:06:40;;;;;;;;;;;;;;;19.87;100.00;99488.22;4970975;28;19926;-83
2023/05/23 08:09:08;;;;;;;;;;;;;;;19.85;100.00;99490.28;4974278;28;20298;-82
2023/05/23 08:11:38;;;;;;;;;;;;;;;19.89;100.00;99486.19;4973269;28;19922;-83
2023/05/23 08:14:05;;;;;;;;;;;;;;;19.99;100.00;99486.59;4970532;28;19918;-83
2023/05/23 08:16:36;;;;;;;;;;;;;;;19.98;100.00;99484.13;4974602;28;19918;-82
2023/05/23 08:19:04;;;;;;;;;;;;;;;20.09;100.00;99477.34;4956160;28;19918;-84
2023/05/23 08:21:30;;;;;;;;;;;;;;;20.20;100.00;99479.41;4974127;28;20389;-84
2023/05/23 08:23:56;;;;;;;;;;;;;;;20.21;100.00;99481.03;4973805;28;20294;-83
2023/05/23 08:26:22;;;;;;;;;;;;;;;20.26;100.00;99479.38;4973956;28;19921;-83
2023/05/23 08:28:47;;;;;;;;;;;;;;;20.32;100.00;99483.13;4972520;28;19929;-83
2023/05/23 08:31:13;;;;;;;;;;;;;;;20.42;100.00;99483.53;4974971;28;20359;-83
2023/05/23 08:33:39;;;;;;;;;;;;;;;20.52;100.00;99483.94;4972578;28;20382;-83
2023/05/23 08:36:05;;;;;;;;;;;;;;;20.61;100.00;99488.06;4941051;28;19918;-82
2023/05/23 08:38:30;;;;;;;;;;;;;;;20.69;100.00;99487.81;4971012;28;20008;-81
2023/05/23 08:41:11;;;;;;;;;;;;;;;20.75;100.00;99481.63;4956013;28;19929;-80
2023/05/23 08:43:36;;;;;;;;;;;;;;;20.82;100.00;99490.47;4970386;28;19918;-79
2023/05/23 08:46:03;;;;;;;;;;;;;;;20.89;100.00;99485.09;4984021;28;19941;-80
2023/05/23 08:48:30;;;;;;;;;;;;;;;20.96;100.00;99482.41;4961643;28;19989;-77
2023/05/23 08:50:56;;;;;;;;;;;;;;;21.03;100.00;99485.88;4955246;28;19918;-80
2023/05/23 08:53:47;;;;;;;8.85;7.07;;;;;;;21.11;100.00;99477.59;5144794;27;20646;-85
2023/05/23 08:56:15;;;;;;;8.90;8.07;;;;;;;21.19;100.00;99490.81;5111096;28;20100;-85
2023/05/23 08:58:49;;;;;;;8.85;7.55;;;;;;;21.23;100.00;99486.66;5112602;28;20111;-82
2023/05/23 09:01:22;;;;;;;9.00;7.68;;;;;;;21.30;100.00;99482.09;5134793;28;20057;-82
2023/05/23 09:03:51;;;;;;;8.15;7.43;;;;;;;21.36;100.00;99481.22;5127648;28;20057;-85
2023/05/23 09:06:28;;;;;;;8.75;7.30;;;;;;;21.43;100.00;99479.34;5124402;28;20091;-86
2023/05/23 09:08:54;;;;;;;11.48;7.57;;;;;;;21.51;100.00;99481.75;5125452;28;20029;-85
2023/05/23 09:11:23;;;;;;;8.30;7.60;;;;;;;21.55;100.00;99474.94;5114507;28;20114;-84
2023/05/23 09:13:49;;;;;;;8.32;7.53;;;;;;;21.49;100.00;99465.06;5118836;28;20047;-86
2023/05/23 09:16:17;;;;;;;94.00;11.23;;;;;;;21.42;100.00;99475.00;5118781;28;20035;-83
2023/05/23 09:18:47;;;;;;;13.00;8.80;;;;;;;21.44;100.00;99466.75;5119313;28;20106;-85
2023/05/23 09:21:15;;;;;;;12.70;8.02;;;;;;;21.49;100.00;99465.06;5122376;28;20042;-88
2023/05/23 09:23:52;;;;;;;10.48;7.32;;;;;;;21.52;100.00;99464.63;5121035;28;20020;-82
2023/05/23 09:26:17;;;;;;;10.40;7.72;;;;;;;21.58;100.00;99457.56;5133424;28;20111;-86
2023/05/23 09:28:43;;;;;;;8.23;7.53;;;;;;;21.66;100.00;99465.38;5123458;28;20043;-90
2023/05/23 09:31:09;;;;;;;8.10;7.47;;;;;;;21.78;100.00;99462.81;5133262;28;20031;-86
2023/05/23 09:33:44;;;;;;;8.75;7.78;;;;;;;21.86;100.00;99466.03;5109878;28;20058;-89
2023/05/23 09:36:10;;;;;;;7.95;6.93;;;;;;;22.01;100.00;99466.59;5102852;28;20115;-88
2023/05/23 09:38:38;;;;;;;8.50;6.75;;;;;;;22.10;99.48;99467.13;5110770;28;20035;-84
2023/05/23 09:41:04;;;;;;;8.35;7.57;;;;;;;22.18;100.00;99474.94;5110368;28;20028;-86
2023/05/23 09:43:29;;;;;;;8.65;7.75;;;;;;;22.23;100.00;99458.13;5123222;28;20043;-91
2023/05/23 09:46:00;;;;;;;11.05;7.70;;;;;;;22.29;100.00;99458.09;5098224;28;20023;-90
2023/05/23 09:48:29;;;;;;;7.97;7.07;;;;;;;22.34;100.00;99458.22;5112522;28;20027;-87
2023/05/23 09:50:55;;;;;;;8.15;7.35;;;;;;;22.41;100.00;99453.63;5121750;28;20073;-86
2023/05/23 09:53:21;;;;;;;7.97;7.28;;;;;;;22.44;100.00;99452.38;5129444;28;20471;-84
2023/05/23 09:55:50;;;;;;;8.05;7.32;;;;;;;22.51;100.00;99447.72;5130335;28;20028;-83
2023/05/23 09:58:18;;;;;;;8.07;7.45;;;;;;;22.60;100.00;99453.66;5129774;28;20195;-81
2023/05/23 10:00:49;;;;;;;10.57;7.90;;;;;;;22.65;100.00;99443.88;5127678;28;20039;-84
2023/05/23 10:03:16;;;;;;;9.38;7.78;;;;;;;22.66;100.00;99439.31;5108730;28;20035;-85
2023/05/23 10:05:52;;;;;;;8.18;7.38;;;;;;;22.68;100.00;99439.91;5115604;28;20047;-86
2023/05/23 10:08:37;;;;;;;9.43;7.80;;;;;;;22.78;100.00;99445.63;5115486;28;20399;-89
2023/05/23 10:11:12;;;;;;;8.15;7.22;;;;;;;22.82;100.00;99438.75;5115750;28;20036;-81
2023/05/23 10:13:42;;;;;;;8.73;8.00;;;;;;;22.89;100.00;99444.88;5113816;28;20149;-87
2023/05/23 10:16:11;;;;;;;8.82;7.93;;;;;;;22.94;100.00;99433.44;5097934;28;20033;-85
2023/05/23 10:18:43;;;;;;;8.45;7.63;;;;;;;22.98;100.00;99431.91;5115998;28;20041;-89
2023/05/23 10:21:11;;;;;;;8.07;7.38;;;;;;;22.96;100.00;99434.03;5111127;28;20426;-85
2023/05/23 10:23:38;;;;;;;9.52;8.30;;;;;;;23.09;100.00;99429.28;5111875;28;20071;-80
2023/05/23 10:26:04;;;;;;;8.13;7.43;;;;;;;23.10;100.00;99419.34;5107978;28;20498;-84
2023/05/23 10:28:33;;;;;;;8.43;7.53;;;;;;;23.08;100.00;99427.66;5095284;28;20065;-84
2023/05/23 10:30:59;;;;;;;8.77;7.88;;;;;;;23.20;100.00;99430.41;5113817;28;20491;-81
2023/05/23 10:33:29;;;;;;;8.02;7.32;;;;;;;23.23;100.00;99430.78;5106279;28;20035;-82
2023/05/23 10:36:11;;;;;;;10.75;7.50;;;;;;;23.32;99.38;99433.16;5106917;28;20032;-83
2023/05/23 10:39:04;;;;;;;8.95;8.20;;;;;;;23.34;95.11;99429.16;5108580;28;20491;-81
2023/05/23 10:41:42;;;;;;;7.93;7.05;;;;;;;23.34;96.96;99426.47;5109904;28;20034;-82
2023/05/23 10:44:19;;;;;;;8.63;7.95;;;;;;;23.45;95.08;99427.56;5094209;28;20078;-87
2023/05/23 10:46:53;;;;;;;8.23;7.53;;;;;;;23.58;95.68;99432.81;5115039;28;20134;-90
2023/05/23 10:49:41;;;;;;;8.60;7.90;;;;;;;23.65;94.05;99428.97;5115727;28;20031;-85
2023/05/23 10:52:07;;;;;;;10.80;7.55;;;;;;;23.74;94.92;99426.75;5112582;28;20535;-84
2023/05/23 10:54:35;;;;;;;10.27;7.88;;;;;;;23.77;95.43;99423.59;5114443;28;20437;-85
2023/05/23 10:57:04;;;;;;;9.27;8.48;;;;;;;23.80;93.03;99422.34;5113549;28;20046;-85
2023/05/23 10:59:30;;;;;;;8.68;7.78;;;;;;;23.78;95.66;99417.16;5115254;28;20573;-83
2023/05/23 11:01:56;;;;;;;10.07;8.40;;;;;;;23.96;87.64;99419.78;5116058;28;20044;-86
2023/05/23 11:04:27;;;;;;;9.93;8.38;;;;;;;24.07;89.41;99418.16;5114113;28;20087;-87
2023/05/23 11:06:54;;;;;;;8.75;7.88;;;;;;;24.16;88.01;99413.22;5110478;28;20016;-85
2023/05/23 11:09:20;;;;;;;8.10;7.35;;;;;;;24.23;89.25;99408.56;5110704;28;20028;-85
2023/05/23 11:12:06;;;;;;;7.32;6.70;;;;;;;24.28;91.19;99405.97;5104760;28;20036;-86
2023/05/23 11:14:36;;;;;;;13.85;7.40;;;;;;;24.33;87.24;99403.38;5110114;28;20198;-85
2023/05/23 11:17:11;;;;;;;;;;;;;;;24.40;87.35;99396.81;5105616;28;20036;-85
2023/05/23 11:19:37;;;;;;;7.43;6.82;;;;;;;24.42;86.99;99402.00;5109357;28;19943;-85
2023/05/23 11:22:07;;;;;;;12.57;7.70;;;;;;;24.43;85.46;99390.16;5108528;28;20038;-85
2023/05/23 11:24:50;;;;;;;8.13;7.43;;;;;;;24.42;85.23;99396.59;5109003;28;20035;-84
2023/05/23 11:27:19;;;;;;;7.72;7.03;;;;;;;24.43;86.61;99388.28;5108394;28;20032;-85
2023/05/23 11:29:56;;;;;;;9.68;7.40;;;;;;;24.50;83.70;99395.44;5108090;28;20034;-85
2023/05/23 11:32:22;;;;;;;7.03;6.45;;;;;;;24.60;83.45;99387.53;5090024;28;20028;-85
2023/05/23 11:34:48;;;;;;;7.47;6.78;;;;;;;24.70;84.76;99387.75;5111368;28;20540;-85
2023/05/23 11:37:14;;;;;;;8.18;7.38;;;;;;;24.81;82.33;99395.00;5109005;28;20110;-85
2023/05/23 11:39:39;;;;;;;8.00;7.18;;;;;;;24.93;83.19;99384.19;5093574;28;20074;-85
2023/05/23 11:42:05;;;;;;;7.88;7.00;;;;;;;24.99;82.15;99381.34;5107867;28;20057;-85
2023/05/23 11:44:31;;;;;;;7.43;6.72;;;;;;;25.10;82.64;99382.38;5092019;28;20084;-86
2023/05/23 11:47:05;;;;;;;13.95;6.53;;;;;;;25.18;79.58;99384.69;5112471;28;20036;-86
2023/05/23 11:49:35;;;;;;;7.35;6.65;;;;;;;25.24;80.77;99372.91;5105829;28;20381;-85
2023/05/23 11:52:05;;;;;;;7.28;6.53;;;;;;;25.25;80.65;99367.28;5111815;28;20035;-85
2023/05/23 11:54:31;;;;;;;6.65;6.15;;;;;;;25.22;79.80;99365.06;5094519;28;20036;-86
2023/05/23 11:56:56;;;;;;;7.50;6.78;;;;;;;25.30;82.12;99355.75;5110519;28;20140;-85
2023/05/23 11:59:27;;;;;;;7.10;6.40;;;;;;;25.39;82.68;99365.09;5112067;28;20023;-86
2023/05/23 12:01:53;;;;;;;7.88;7.00;;;;;;;25.54;79.23;99348.31;5090499;28;20440;-86
2023/05/23 12:04:19;;;;;;;8.80;6.57;;;;;;;25.72;80.09;99347.31;5110280;28;20115;-86
2023/05/23 12:06:47;;;;;;;6.60;6.07;;;;;;;25.94;79.27;99350.88;5114213;28;20135;-84
2023/05/23 12:09:13;;;;;;;7.45;6.65;;;;;;;26.18;78.63;99346.91;5112151;28;20050;-84
2023/05/23 12:11:40;;;;;;;7.13;6.30;;;;;;;26.42;78.66;99337.56;5091631;28;20024;-84
2023/05/23 12:14:07;;;;;;;9.35;6.38;;;;;;;26.64;77.00;99344.84;5110520;28;20085;-84
2023/05/23 12:16:34;;;;;;;7.20;6.60;;;;;;;26.72;73.42;99344.41;5114284;28;20027;-87
2023/05/23 12:19:01;;;;;;;7.18;6.55;;;;;;;26.85;72.79;99338.63;5113544;28;20038;-87
2023/05/23 12:21:40;;;;;;;6.70;6.10;;;;;;;26.99;72.13;99341.75;5116083;28;20032;-87